createdAt,value
2023-02-15T00:07:45.316Z,994.75
2023-02-15T00:19:45.788Z,994.87
2023-02-15T00:31:46.328Z,994.80
2023-02-15T00:43:46.660Z,994.77
2023-02-15T00:55:47.138Z,994.76
2023-02-15T01:07:47.596Z,994.45
2023-02-15T01:19:48.050Z,994.46
2023-02-15T01:31:48.561Z,994.32
2023-02-15T01:43:48.941Z,994.21
2023-02-15T01:55:49.366Z,994.21
2023-02-15T02:07:49.847Z,993.99
2023-02-15T02:19:50.300Z,993.86
2023-02-15T02:31:50.769Z,993.84
2023-02-15T02:43:51.216Z,993.73
2023-02-15T02:55:51.677Z,993.66
2023-02-15T03:07:52.106Z,993.52
2023-02-15T03:19:52.549Z,993.58
2023-02-15T03:31:53.072Z,993.50
2023-02-15T03:43:53.478Z,993.49
2023-02-15T03:55:53.889Z,993.52
2023-02-15T04:07:54.389Z,993.54
2023-02-15T04:19:54.832Z,993.46
2023-02-15T04:31:55.350Z,993.41
2023-02-15T04:43:55.720Z,993.37
2023-02-15T04:55:56.164Z,993.36
2023-02-15T05:07:56.602Z,993.29
2023-02-15T05:19:57.069Z,993.41
2023-02-15T05:31:57.677Z,993.45
2023-02-15T05:43:57.988Z,993.48
2023-02-15T05:55:58.490Z,993.49
2023-02-15T06:07:58.863Z,993.51
2023-02-15T06:19:59.315Z,993.59
2023-02-15T06:31:59.935Z,993.68
2023-02-15T06:44:00.219Z,993.67
2023-02-15T06:56:01.037Z,993.58
2023-02-15T07:08:01.118Z,993.72
2023-02-15T07:20:01.603Z,993.63
2023-02-15T07:32:02.118Z,993.74
2023-02-15T07:44:02.542Z,993.49
2023-02-15T07:56:03.198Z,993.41
2023-02-15T08:08:03.364Z,993.46
2023-02-15T08:20:03.876Z,993.50
2023-02-15T08:32:04.380Z,993.44
2023-02-15T08:44:04.786Z,993.35
2023-02-15T08:56:05.226Z,993.20
2023-02-15T09:08:05.695Z,993.21
2023-02-15T09:20:06.134Z,993.21
2023-02-15T09:32:06.635Z,993.13
2023-02-15T09:44:07.026Z,993.24
2023-02-15T09:56:07.457Z,993.17
2023-02-15T10:08:07.963Z,993.13
2023-02-15T10:20:08.404Z,992.98
2023-02-15T10:32:08.994Z,992.87
2023-02-15T10:44:09.259Z,992.70
2023-02-15T10:56:09.759Z,992.49
2023-02-15T11:08:10.159Z,992.42
2023-02-15T11:20:10.654Z,992.35
2023-02-15T11:32:11.284Z,992.12
2023-02-15T11:44:11.564Z,991.92
2023-02-15T11:56:11.992Z,992.03
2023-02-15T12:08:12.455Z,992.03
2023-02-15T12:20:12.874Z,991.96
2023-02-15T12:32:13.465Z,991.93
2023-02-15T12:44:14.617Z,991.81
2023-02-15T12:56:14.298Z,991.60
2023-02-15T13:08:14.742Z,991.58
2023-02-15T13:20:15.195Z,991.59
2023-02-15T13:32:15.670Z,991.40
2023-02-15T13:44:16.116Z,991.33
2023-02-15T13:56:16.533Z,991.32
2023-02-15T14:08:17.035Z,991.25
2023-02-15T14:20:17.489Z,991.29
2023-02-15T14:32:17.992Z,991.28
2023-02-15T14:44:18.320Z,991.12
2023-02-15T14:56:18.861Z,990.96
2023-02-15T15:08:19.247Z,990.96
2023-02-15T15:20:19.707Z,990.82
2023-02-15T15:32:20.231Z,990.91
2023-02-15T15:44:20.622Z,990.83
2023-02-15T15:56:21.058Z,990.74
2023-02-15T16:08:21.543Z,990.75
2023-02-15T16:20:22.027Z,990.69
2023-02-15T16:32:22.427Z,990.64
2023-02-15T16:44:22.889Z,990.83
2023-02-15T16:56:23.325Z,990.76
2023-02-15T17:08:23.833Z,990.87
2023-02-15T17:20:24.303Z,990.87
2023-02-15T17:32:24.831Z,990.83
2023-02-15T17:44:25.165Z,990.86
2023-02-15T17:56:25.797Z,991.01
2023-02-15T18:08:26.092Z,990.97
2023-02-15T18:20:26.712Z,990.93
2023-02-15T18:32:27.022Z,991.04
2023-02-15T18:44:27.486Z,990.98
2023-02-15T18:56:27.883Z,991.04
2023-02-15T19:08:28.355Z,990.94
2023-02-15T19:20:28.762Z,990.96
2023-02-15T19:32:29.188Z,990.96
2023-02-15T19:44:29.742Z,990.91
2023-02-15T19:56:30.156Z,990.90
2023-02-15T20:08:30.645Z,990.80
2023-02-15T20:20:31.098Z,990.72
2023-02-15T20:32:31.672Z,990.61
2023-02-15T20:44:31.954Z,990.69
2023-02-15T20:56:33.768Z,990.61
2023-02-15T21:08:32.836Z,990.49
2023-02-15T21:20:33.338Z,990.48
2023-02-15T21:32:33.845Z,990.49
2023-02-15T21:44:34.205Z,990.48
2023-02-15T21:56:34.677Z,990.57
2023-02-15T22:08:35.109Z,990.33
2023-02-15T22:20:35.558Z,990.32
2023-02-15T22:32:36.021Z,990.19
2023-02-15T22:44:36.475Z,990.19
2023-02-15T22:56:36.917Z,990.15
2023-02-15T23:08:37.321Z,990.31
2023-02-15T23:20:37.793Z,990.32
2023-02-15T23:32:38.387Z,990.29
2023-02-15T23:44:38.705Z,990.25
2023-02-15T23:56:39.167Z,990.26
